Time;durP1;ratioP1;P1;durP2;ratioP2;P2;SDS_P1;SDS_P2;PMS_P1;PMS_P2;Temp;Humidity;BMP_temperature;BMP_pressure;BME280_temperature;BME280_humidity;BME280_pressure;Samples;Min_cycle;Max_cycle;Signal;HPM_P1;HPM_P2
2022/08/19 00:01:48;;;;;;;13.52;4.93;;;;;;;;;;4964182;28;20053;-64
2022/08/19 00:04:15;;;;;;;10.70;3.80;;;;;;;;;;4963420;28;20089;-64
2022/08/19 00:06:41;;;;;;;8.95;4.25;;;;;;;;;;4965399;28;20026;-64
2022/08/19 00:09:08;;;;;;;10.27;4.40;;;;;;;;;;4965438;28;20386;-64
2022/08/19 00:11:36;;;;;;;7.00;3.70;;;;;;;;;;4965484;28;20057;-64
2022/08/19 00:14:02;;;;;;;10.55;5.25;;;;;;;;;;4963386;28;20019;-64
2022/08/19 00:16:27;;;;;;;10.93;4.35;;;;;;;;;;4963764;28;20026;-66
2022/08/19 00:18:53;;;;;;;5.80;3.58;;;;;;;;;;4964424;28;20027;-65
2022/08/19 00:21:18;;;;;;;15.68;4.70;;;;;;;;;;4963630;28;20046;-65
2022/08/19 00:23:44;;;;;;;13.25;4.65;;;;;;;;;;4964850;28;20441;-65
2022/08/19 00:26:10;;;;;;;6.45;4.13;;;;;;;;;;4962564;28;20039;-65
2022/08/19 00:28:36;;;;;;;8.63;3.78;;;;;;;;;;4963952;28;20477;-65
2022/08/19 00:31:01;;;;;;;9.30;4.22;;;;;;;;;;4964220;28;20046;-64
2022/08/19 00:33:27;;;;;;;8.45;4.63;;;;;;;;;;4963143;28;20063;-64
2022/08/19 00:35:52;;;;;;;9.10;4.13;;;;;;;;;;4963803;28;20034;-65
2022/08/19 00:38:17;;;;;;;11.18;5.18;;;;;;;;;;4963853;28;20103;-65
2022/08/19 00:40:46;;;;;;;9.02;4.68;;;;;;;;;;4961342;28;20181;-64
2022/08/19 00:43:12;;;;;;;6.18;4.25;;;;;;;;;;4957332;28;20033;-65
2022/08/19 00:45:41;;;;;;;15.02;4.45;;;;;;;;;;4962584;28;20031;-65
2022/08/19 00:48:06;;;;;;;11.73;4.53;;;;;;;;;;4960173;28;20036;-65
2022/08/19 00:50:33;;;;;;;8.80;4.80;;;;;;;;;;4958352;28;20035;-64
2022/08/19 00:52:59;;;;;;;10.63;4.20;;;;;;;;;;4960425;28;20432;-66
2022/08/19 00:55:28;;;;;;;9.23;5.00;;;;;;;;;;4961881;28;20015;-65
2022/08/19 00:58:01;;;;;;;9.25;4.60;;;;;;;;;;4958776;28;20416;-65
2022/08/19 01:00:27;;;;;;;9.32;4.40;;;;;;;;;;4958091;28;20105;-65
2022/08/19 01:02:53;;;;;;;9.90;5.10;;;;;;;;;;4962272;28;20085;-65
2022/08/19 01:05:27;;;;;;;8.75;4.40;;;;;;;;;;4955998;28;20070;-64
2022/08/19 01:07:53;;;;;;;6.73;4.03;;;;;;;;;;4958876;28;20397;-65
2022/08/19 01:10:20;;;;;;;9.57;3.97;;;;;;;;;;4962658;28;20030;-65
2022/08/19 01:12:46;;;;;;;11.07;4.72;;;;;;;;;;4964763;28;20109;-65
2022/08/19 01:15:12;;;;;;;15.07;4.20;;;;;;;;;;4963019;28;20496;-64
2022/08/19 01:17:39;;;;;;;7.32;4.63;;;;;;;;;;4960269;28;20456;-65
2022/08/19 01:20:06;;;;;;;8.85;4.18;;;;;;;;;;4957598;28;20030;-65
2022/08/19 01:22:35;;;;;;;11.77;4.68;;;;;;;;;;4962506;28;20054;-64
2022/08/19 01:25:00;;;;;;;10.20;4.35;;;;;;;;;;4961915;28;20023;-66
2022/08/19 01:27:26;;;;;;;6.60;4.20;;;;;;;;;;4962988;28;20058;-66
2022/08/19 01:29:51;;;;;;;14.10;5.55;;;;;;;;;;4962704;28;20023;-66
2022/08/19 01:32:17;;;;;;;6.90;4.10;;;;;;;;;;4966654;28;20556;-65
2022/08/19 01:34:46;;;;;;;7.97;4.60;;;;;;;;;;4958599;28;20153;-67
2022/08/19 01:37:12;;;;;;;8.02;4.43;;;;;;;;;;4956563;28;20537;-65
2022/08/19 01:39:39;;;;;;;11.55;5.30;;;;;;;;;;4962007;28;20058;-65
2022/08/19 01:42:06;;;;;;;7.90;4.38;;;;;;;;;;4963482;28;20144;-65
2022/08/19 01:44:31;;;;;;;9.40;4.93;;;;;;;;;;4962302;28;20023;-65
2022/08/19 01:46:56;;;;;;;11.15;4.88;;;;;;;;;;4957685;28;20088;-65
2022/08/19 01:49:24;;;;;;;14.98;5.65;;;;;;;;;;4958832;28;20126;-66
2022/08/19 01:51:49;;;;;;;8.38;4.10;;;;;;;;;;4962343;28;20055;-65
2022/08/19 01:54:15;;;;;;;11.48;5.18;;;;;;;;;;4960829;28;20031;-66
2022/08/19 01:56:40;;;;;;;8.40;4.45;;;;;;;;;;4957810;28;20031;-65
2022/08/19 01:59:09;;;;;;;16.02;5.95;;;;;;;;;;4958191;28;20090;-65
2022/08/19 02:01:35;;;;;;;14.05;5.20;;;;;;;;;;4962316;28;20030;-65
2022/08/19 02:04:00;;;;;;;10.13;4.93;;;;;;;;;;4963004;28;20026;-65
2022/08/19 02:06:26;;;;;;;10.38;4.95;;;;;;;;;;4962001;28;20031;-64
2022/08/19 02:08:51;;;;;;;10.82;4.55;;;;;;;;;;4957216;28;20037;-64
2022/08/19 02:11:26;;;;;;;10.15;4.40;;;;;;;;;;4958871;28;20137;-64
2022/08/19 02:13:51;;;;;;;13.48;4.88;;;;;;;;;;4961948;28;20034;-65
2022/08/19 02:16:17;;;;;;;8.65;4.53;;;;;;;;;;4961760;28;20031;-65
2022/08/19 02:18:42;;;;;;;11.18;4.75;;;;;;;;;;4963162;28;20034;-65
2022/08/19 02:21:08;;;;;;;7.78;5.03;;;;;;;;;;4961237;28;20042;-65
2022/08/19 02:23:33;;;;;;;9.00;4.25;;;;;;;;;;4963713;28;20033;-65
2022/08/19 02:25:58;;;;;;;11.43;4.55;;;;;;;;;;4957722;28;20043;-65
2022/08/19 02:28:24;;;;;;;9.65;4.78;;;;;;;;;;4955877;28;20038;-64
2022/08/19 02:30:49;;;;;;;10.25;4.93;;;;;;;;;;4961698;28;20393;-65
2022/08/19 02:33:15;;;;;;;13.45;5.97;;;;;;;;;;4961252;28;20051;-69
2022/08/19 02:35:41;;;;;;;7.43;4.65;;;;;;;;;;4961119;28;20031;-64
2022/08/19 02:40:52;;;;;;;9.35;5.20;;;;;;;;;;4954975;28;20042;-68
2022/08/19 02:43:19;;;;;;;9.07;4.90;;;;;;;;;;4957054;28;20032;-68
2022/08/19 02:45:45;;;;;;;10.23;4.78;;;;;;;;;;4957187;28;20508;-67
2022/08/19 02:48:10;;;;;;;11.95;5.05;;;;;;;;;;4962022;28;20023;-68
2022/08/19 02:50:40;;;;;;;9.77;4.78;;;;;;;;;;4958874;28;20053;-67
2022/08/19 02:53:06;;;;;;;10.95;5.13;;;;;;;;;;4960609;28;20031;-67
2022/08/19 02:55:32;;;;;;;12.40;4.72;;;;;;;;;;4958031;28;20150;-68
2022/08/19 02:57:59;;;;;;;12.43;4.35;;;;;;;;;;4958132;28;20034;-67
2022/08/19 03:00:24;;;;;;;9.63;4.25;;;;;;;;;;4961786;28;20113;-67
2022/08/19 03:02:50;;;;;;;11.02;4.95;;;;;;;;;;4958017;28;20465;-66
2022/08/19 03:05:15;;;;;;;10.27;3.88;;;;;;;;;;4946750;28;20050;-68
2022/08/19 03:07:40;;;;;;;7.40;4.35;;;;;;;;;;4958105;28;20500;-67
2022/08/19 03:10:06;;;;;;;14.70;5.07;;;;;;;;;;4959653;28;20117;-67
2022/08/19 03:12:35;;;;;;;14.60;4.30;;;;;;;;;;4962990;28;20469;-67
2022/08/19 03:15:00;;;;;;;7.85;4.25;;;;;;;;;;4959140;28;20031;-65
2022/08/19 03:17:25;;;;;;;10.13;4.45;;;;;;;;;;4960645;28;20038;-65
2022/08/19 03:19:51;;;;;;;8.73;4.35;;;;;;;;;;4957485;28;20035;-66
2022/08/19 03:22:16;;;;;;;9.98;5.05;;;;;;;;;;4956474;28;20066;-67
2022/08/19 03:24:41;;;;;;;9.35;5.15;;;;;;;;;;4961879;28;20035;-69
2022/08/19 03:27:06;;;;;;;8.55;4.85;;;;;;;;;;4957900;28;20417;-71
2022/08/19 03:29:32;;;;;;;11.27;4.53;;;;;;;;;;4961636;28;20026;-69
2022/08/19 03:32:02;;;;;;;13.40;5.32;;;;;;;;;;4957368;28;20111;-71
2022/08/19 03:34:29;;;;;;;8.57;4.47;;;;;;;;;;4960481;28;20386;-72
2022/08/19 03:37:00;;;;;;;13.68;5.40;;;;;;;;;;4961105;28;20030;-70
2022/08/19 03:39:26;;;;;;;9.27;5.80;;;;;;;;;;4959062;28;20520;-70
2022/08/19 03:41:52;;;;;;;7.85;4.82;;;;;;;;;;4961041;28;20046;-70
2022/08/19 03:44:20;;;;;;;9.88;4.65;;;;;;;;;;4959146;28;20121;-70
2022/08/19 03:46:46;;;;;;;12.20;5.53;;;;;;;;;;4962920;28;20117;-70
2022/08/19 03:49:12;;;;;;;9.93;5.00;;;;;;;;;;4958938;28;20370;-70
2022/08/19 03:51:38;;;;;;;9.73;5.22;;;;;;;;;;4961466;28;20089;-70
2022/08/19 03:54:05;;;;;;;7.22;4.55;;;;;;;;;;4964444;28;20062;-71
2022/08/19 03:56:32;;;;;;;10.43;5.53;;;;;;;;;;4958679;28;20027;-70
2022/08/19 03:58:59;;;;;;;10.65;4.90;;;;;;;;;;4960196;28;20045;-70
2022/08/19 04:01:26;;;;;;;15.13;6.68;;;;;;;;;;4964097;28;20035;-70
2022/08/19 04:03:52;;;;;;;9.27;4.65;;;;;;;;;;4959068;28;20359;-70
2022/08/19 04:06:28;;;;;;;10.30;5.10;;;;;;;;;;4958357;28;20085;-70
2022/08/19 04:08:54;;;;;;;10.48;5.28;;;;;;;;;;4957010;28;20109;-70
2022/08/19 04:11:21;;;;;;;15.88;7.70;;;;;;;;;;4944258;28;20445;-70
2022/08/19 04:13:47;;;;;;;24.92;11.63;;;;;;;;;;4958769;28;20030;-70
2022/08/19 04:16:13;;;;;;;14.57;9.68;;;;;;;;;;4963647;28;20054;-70
2022/08/19 04:18:39;;;;;;;11.07;5.65;;;;;;;;;;4959358;28;20130;-71
2022/08/19 04:21:05;;;;;;;11.82;5.75;;;;;;;;;;4961413;28;20058;-70
2022/08/19 04:23:30;;;;;;;10.55;5.43;;;;;;;;;;4940414;28;20069;-70
2022/08/19 04:25:55;;;;;;;7.00;4.72;;;;;;;;;;4964941;28;20110;-70
2022/08/19 04:28:21;;;;;;;10.00;5.85;;;;;;;;;;4962531;28;20501;-69
2022/08/19 04:30:48;;;;;;;8.38;5.68;;;;;;;;;;4964713;28;20041;-70
2022/08/19 04:33:15;;;;;;;7.65;5.13;;;;;;;;;;4964720;28;20159;-70
2022/08/19 04:35:44;;;;;;;13.77;6.45;;;;;;;;;;4963602;28;20029;-70
2022/08/19 04:38:10;;;;;;;14.18;6.88;;;;;;;;;;4962548;28;20118;-69
2022/08/19 04:43:24;;;;;;;12.23;6.28;;;;;;;;;;4959267;28;20108;-69
2022/08/19 04:45:50;;;;;;;9.93;5.68;;;;;;;;;;4957187;28;20030;-70
2022/08/19 04:48:15;;;;;;;7.85;4.90;;;;;;;;;;4956819;28;20034;-69
2022/08/19 04:50:41;;;;;;;12.38;5.65;;;;;;;;;;4948386;28;20049;-71
2022/08/19 04:53:07;;;;;;;15.65;5.18;;;;;;;;;;4962544;28;20031;-70
2022/08/19 04:55:32;;;;;;;8.65;4.78;;;;;;;;;;4957339;28;20030;-70
2022/08/19 04:57:58;;;;;;;9.05;5.47;;;;;;;;;;4956205;28;20107;-71
2022/08/19 05:00:23;;;;;;;10.02;5.13;;;;;;;;;;4955996;28;20038;-70
2022/08/19 05:02:48;;;;;;;9.65;4.47;;;;;;;;;;4961673;28;20122;-68
2022/08/19 05:05:14;;;;;;;9.98;6.25;;;;;;;;;;4962749;28;20902;-70
2022/08/19 05:07:40;;;;;;;6.13;5.13;;;;;;;;;;4962127;28;20074;-69
2022/08/19 05:10:06;;;;;;;8.45;5.28;;;;;;;;;;4957933;28;20158;-70
2022/08/19 05:12:31;;;;;;;9.63;5.65;;;;;;;;;;4956738;28;20102;-70
2022/08/19 05:14:57;;;;;;;9.85;5.97;;;;;;;;;;4956369;28;20143;-70
2022/08/19 05:17:22;;;;;;;6.78;5.07;;;;;;;;;;4957596;28;20106;-70
2022/08/19 05:22:32;;;;;;;7.95;5.07;;;;;;;;;;4956540;28;20136;-70
2022/08/19 05:24:58;;;;;;;12.63;5.05;;;;;;;;;;4955705;28;20578;-70
2022/08/19 05:27:23;;;;;;;6.85;5.05;;;;;;;;;;4960800;28;20030;-69
2022/08/19 05:29:48;;;;;;;10.82;4.55;;;;;;;;;;4962637;28;20093;-70
2022/08/19 05:32:13;;;;;;;11.77;5.75;;;;;;;;;;4962300;28;20062;-70
2022/08/19 05:34:39;;;;;;;10.45;5.20;;;;;;;;;;4962282;28;20470;-70
2022/08/19 05:37:04;;;;;;;9.52;4.85;;;;;;;;;;4963644;28;20042;-67
2022/08/19 05:39:32;;;;;;;9.65;4.68;;;;;;;;;;4957463;28;20030;-68
2022/08/19 05:41:59;;;;;;;14.93;4.72;;;;;;;;;;4957873;28;20057;-67
2022/08/19 05:44:25;;;;;;;9.18;4.57;;;;;;;;;;4958088;28;20027;-67
2022/08/19 05:46:54;;;;;;;12.05;4.68;;;;;;;;;;4959128;28;20018;-67
2022/08/19 05:49:21;;;;;;;12.45;4.90;;;;;;;;;;4956365;28;20101;-67
2022/08/19 05:51:46;;;;;;;7.65;4.80;;;;;;;;;;4959544;28;20139;-65
2022/08/19 05:54:13;;;;;;;11.10;5.40;;;;;;;;;;4956215;28;20041;-67
2022/08/19 05:56:38;;;;;;;10.55;4.60;;;;;;;;;;4957280;28;20034;-67
2022/08/19 05:59:09;;;;;;;8.23;4.78;;;;;;;;;;4956700;28;20031;-66
2022/08/19 06:01:34;;;;;;;7.65;5.05;;;;;;;;;;4960521;28;20038;-66
2022/08/19 06:03:59;;;;;;;8.63;4.80;;;;;;;;;;4956381;28;20026;-66
2022/08/19 06:06:25;;;;;;;11.02;4.97;;;;;;;;;;4956725;28;20041;-66
2022/08/19 06:08:50;;;;;;;8.52;4.95;;;;;;;;;;4956649;28;20027;-66
2022/08/19 06:11:18;;;;;;;11.68;5.30;;;;;;;;;;4957683;28;20035;-68
2022/08/19 06:13:46;;;;;;;9.23;4.68;;;;;;;;;;4958593;28;20030;-67
2022/08/19 06:16:12;;;;;;;11.00;4.78;;;;;;;;;;4955489;28;20027;-66
2022/08/19 06:18:37;;;;;;;10.80;5.28;;;;;;;;;;4960811;28;20342;-67
2022/08/19 06:21:03;;;;;;;10.43;5.05;;;;;;;;;;4959554;28;20385;-67
2022/08/19 06:23:29;;;;;;;8.77;5.38;;;;;;;;;;4960550;28;20067;-66
2022/08/19 06:25:54;;;;;;;10.35;5.50;;;;;;;;;;4962959;28;20506;-66
2022/08/19 06:28:20;;;;;;;11.27;5.25;;;;;;;;;;4943917;28;20023;-67
2022/08/19 06:30:45;;;;;;;10.27;5.10;;;;;;;;;;4959470;28;20713;-67
2022/08/19 06:33:11;;;;;;;12.63;5.35;;;;;;;;;;4960799;28;20406;-67
2022/08/19 06:35:40;;;;;;;6.32;4.75;;;;;;;;;;4963840;28;20031;-67
2022/08/19 06:38:07;;;;;;;7.97;6.03;;;;;;;;;;4966473;28;20050;-67
2022/08/19 06:40:32;;;;;;;8.45;6.07;;;;;;;;;;4965810;28;20030;-68
2022/08/19 06:42:59;;;;;;;13.95;6.20;;;;;;;;;;4966981;28;20041;-67
2022/08/19 06:45:24;;;;;;;16.88;5.97;;;;;;;;;;4965280;28;20037;-67
2022/08/19 06:47:51;;;;;;;6.97;6.20;;;;;;;;;;4959100;28;20516;-67
2022/08/19 06:50:16;;;;;;;8.32;6.30;;;;;;;;;;4959974;28;20592;-67
2022/08/19 06:52:42;;;;;;;10.93;6.68;;;;;;;;;;4959148;28;20050;-62
2022/08/19 06:55:07;;;;;;;8.90;8.00;;;;;;;;;;4959163;28;20436;-68
2022/08/19 06:57:33;;;;;;;12.13;8.27;;;;;;;;;;4942081;28;20515;-67
2022/08/19 06:59:59;;;;;;;9.80;8.90;;;;;;;;;;4959718;28;20033;-67
2022/08/19 07:02:26;;;;;;;8.40;7.60;;;;;;;;;;4959247;28;20037;-68
2022/08/19 07:04:52;;;;;;;8.73;7.50;;;;;;;;;;4959553;28;20424;-70
2022/08/19 07:07:17;;;;;;;7.85;7.15;;;;;;;;;;4958326;28;20055;-66
2022/08/19 07:09:43;;;;;;;9.57;7.68;;;;;;;;;;4965203;28;20122;-67
2022/08/19 07:12:10;;;;;;;7.57;6.88;;;;;;;;;;4964052;28;20035;-67
2022/08/19 07:14:37;;;;;;;9.10;8.07;;;;;;;;;;4959207;28;20038;-67
2022/08/19 07:17:03;;;;;;;8.35;7.28;;;;;;;;;;4960886;28;20097;-66
2022/08/19 07:19:29;;;;;;;10.55;8.23;;;;;;;;;;4958707;28;20105;-67
2022/08/19 07:21:55;;;;;;;9.98;8.10;;;;;;;;;;4959472;28;20437;-67
2022/08/19 07:24:23;;;;;;;8.77;7.80;;;;;;;;;;4961062;28;20039;-66
2022/08/19 07:26:49;;;;;;;12.70;7.63;;;;;;;;;;4957096;28;20092;-66
2022/08/19 07:29:14;;;;;;;9.15;7.45;;;;;;;;;;4959945;28;20469;-66
2022/08/19 07:31:40;;;;;;;9.73;6.75;;;;;;;;;;4956267;28;20153;-67
2022/08/19 07:34:06;;;;;;;11.13;8.20;;;;;;;;;;4958894;28;20031;-66
2022/08/19 07:36:33;;;;;;;9.57;7.53;;;;;;;;;;4957762;28;20386;-66
2022/08/19 07:38:59;;;;;;;10.48;8.77;;;;;;;;;;4958168;28;20498;-66
2022/08/19 07:41:26;;;;;;;10.50;7.38;;;;;;;;;;4958151;28;20133;-66
2022/08/19 07:43:51;;;;;;;7.38;6.70;;;;;;;;;;4950105;28;20074;-67
2022/08/19 07:46:17;;;;;;;8.15;7.22;;;;;;;;;;4964523;28;20118;-66
2022/08/19 07:48:46;;;;;;;11.73;7.43;;;;;;;;;;4965534;28;20082;-67
2022/08/19 07:51:13;;;;;;;8.02;7.32;;;;;;;;;;4957715;28;20030;-66
2022/08/19 07:53:38;;;;;;;9.98;8.10;;;;;;;;;;4959082;28;20034;-67
2022/08/19 07:56:04;;;;;;;10.20;7.93;;;;;;;;;;4962454;28;20030;-62
2022/08/19 07:58:30;;;;;;;10.63;7.45;;;;;;;;;;4963876;28;20022;-65
2022/08/19 08:00:56;;;;;;;8.35;7.60;;;;;;;;;;4956225;28;20054;-66
2022/08/19 08:09:10;;;;;;;8.23;7.43;;;;;;;;;;4957369;28;20162;-66
2022/08/19 08:11:35;;;;;;;10.13;7.00;;;;;;;;;;4958361;28;20033;-69
2022/08/19 08:14:01;;;;;;;7.63;7.00;;;;;;;;;;4963051;28;20039;-67
2022/08/19 08:16:29;;;;;;;8.68;7.45;;;;;;;;;;4964298;28;20015;-68
2022/08/19 08:18:55;;;;;;;11.52;7.40;;;;;;;;;;4963423;28;20631;-67
2022/08/19 08:21:20;;;;;;;11.98;8.02;;;;;;;;;;4964065;28;20035;-67
2022/08/19 08:23:45;;;;;;;11.00;8.23;;;;;;;;;;4947378;28;20042;-68
2022/08/19 08:26:12;;;;;;;8.02;7.22;;;;;;;;;;4963926;28;20472;-67
2022/08/19 08:28:38;;;;;;;8.43;7.57;;;;;;;;;;4958169;28;20035;-69
2022/08/19 08:31:04;;;;;;;8.80;7.63;;;;;;;;;;4942656;28;20113;-68
2022/08/19 08:33:30;;;;;;;11.02;8.63;;;;;;;;;;4957812;28;20524;-68
2022/08/19 08:35:55;;;;;;;11.88;8.38;;;;;;;;;;4941371;28;20078;-68
2022/08/19 08:38:20;;;;;;;9.25;8.27;;;;;;;;;;4956557;28;20470;-68
2022/08/19 08:40:56;;;;;;;10.70;7.45;;;;;;;;;;4959922;28;20038;-68
2022/08/19 08:43:28;;;;;;;9.10;7.30;;;;;;;;;;4957194;28;20030;-67
2022/08/19 08:46:04;;;;;;;9.55;8.43;;;;;;;;;;4957659;28;20038;-67
2022/08/19 08:48:35;;;;;;;9.55;7.90;;;;;;;;;;4956614;28;20023;-67
2022/08/19 08:51:03;;;;;;;8.80;7.20;;;;;;;;;;4957558;28;20050;-67
2022/08/19 08:53:28;;;;;;;8.88;7.40;;;;;;;;;;4958860;28;20061;-67
2022/08/19 08:55:54;;;;;;;10.93;7.10;;;;;;;;;;4956824;28;20145;-67
2022/08/19 08:58:42;;;;;;;10.63;7.32;;;;;;;;;;4955897;28;20477;-67
2022/08/19 09:01:10;;;;;;;8.38;7.53;;;;;;;;;;4952360;28;20091;-68
2022/08/19 09:03:36;;;;;;;8.00;7.15;;;;;;;;;;4958319;28;20095;-67
2022/08/19 09:06:25;;;;;;;7.47;6.88;;;;;;;;;;4957585;28;20472;-67
2022/08/19 09:08:51;;;;;;;8.60;7.20;;;;;;;;;;4947514;28;20045;-68
2022/08/19 09:11:23;;;;;;;8.68;7.15;;;;;;;;;;4960297;28;20098;-66
2022/08/19 09:14:11;;;;;;;13.32;7.82;;;;;;;;;;4956291;28;20031;-66
2022/08/19 09:16:38;;;;;;;7.97;6.53;;;;;;;;;;4959383;28;20026;-65
2022/08/19 09:19:05;;;;;;;9.57;7.75;;;;;;;;;;4957138;28;20026;-67
2022/08/19 09:21:30;;;;;;;9.32;6.72;;;;;;;;;;4956288;28;20134;-67
2022/08/19 09:23:57;;;;;;;7.25;6.47;;;;;;;;;;4940857;28;20085;-67
2022/08/19 09:26:23;;;;;;;10.15;7.13;;;;;;;;;;4960132;28;20117;-67
2022/08/19 09:28:50;;;;;;;9.98;6.47;;;;;;;;;;4957937;28;20121;-67
2022/08/19 09:31:20;;;;;;;8.55;7.63;;;;;;;;;;4957857;28;20030;-66
2022/08/19 09:33:46;;;;;;;7.43;6.03;;;;;;;;;;4957510;28;20050;-66
2022/08/19 09:36:13;;;;;;;10.90;6.82;;;;;;;;;;4958060;28;20042;-67
2022/08/19 09:38:40;;;;;;;8.52;7.32;;;;;;;;;;4959599;28;20138;-67
2022/08/19 09:41:12;;;;;;;13.07;7.10;;;;;;;;;;4957186;28;20089;-67
2022/08/19 09:43:37;;;;;;;8.23;6.95;;;;;;;;;;4963375;28;20033;-67
2022/08/19 09:46:05;;;;;;;10.38;6.95;;;;;;;;;;4958277;28;20031;-66
2022/08/19 09:48:31;;;;;;;7.28;6.45;;;;;;;;;;4957918;28;20034;-67
2022/08/19 09:51:07;;;;;;;13.77;6.30;;;;;;;;;;4961703;28;20038;-68
2022/08/19 09:53:33;;;;;;;9.07;7.10;;;;;;;;;;4962796;28;20031;-66
2022/08/19 09:55:58;;;;;;;8.00;6.20;;;;;;;;;;4961408;28;20073;-67
2022/08/19 09:58:27;;;;;;;10.30;6.70;;;;;;;;;;4961279;28;20583;-67
2022/08/19 10:00:53;;;;;;;8.82;6.50;;;;;;;;;;4956261;28;20035;-67
2022/08/19 10:03:18;;;;;;;7.53;6.70;;;;;;;;;;4959222;28;20057;-67
2022/08/19 10:05:49;;;;;;;12.48;7.07;;;;;;;;;;4955472;28;20543;-68
2022/08/19 10:08:22;;;;;;;11.70;6.97;;;;;;;;;;4957052;28;20716;-67
2022/08/19 10:10:48;;;;;;;8.73;7.35;;;;;;;;;;4956874;28;20038;-68
2022/08/19 10:13:16;;;;;;;10.93;6.90;;;;;;;;;;4959046;28;20478;-67
2022/08/19 10:15:42;;;;;;;8.57;6.60;;;;;;;;;;4953214;28;20533;-67
2022/08/19 10:18:07;;;;;;;22.05;17.40;;;;;;;;;;4958908;28;20046;-67
2022/08/19 10:20:35;;;;;;;13.30;10.38;;;;;;;;;;4958034;28;20034;-67
2022/08/19 10:23:00;;;;;;;11.15;7.57;;;;;;;;;;4948391;28;20046;-68
2022/08/19 10:25:26;;;;;;;8.93;6.85;;;;;;;;;;4944353;28;20370;-68
2022/08/19 10:27:55;;;;;;;7.45;6.75;;;;;;;;;;4947132;28;20674;-67
2022/08/19 10:30:20;;;;;;;8.23;7.03;;;;;;;;;;4944703;28;20399;-67
2022/08/19 10:32:46;;;;;;;14.70;7.88;;;;;;;;;;4939532;28;20063;-67
2022/08/19 10:35:12;;;;;;;14.10;6.50;;;;;;;;;;4959749;28;20026;-67
2022/08/19 10:37:38;;;;;;;26.75;12.57;;;;;;;;;;4958929;28;20030;-68
2022/08/19 10:40:05;;;;;;;13.85;7.63;;;;;;;;;;4959102;28;20155;-67
2022/08/19 10:42:31;;;;;;;13.77;8.98;;;;;;;;;;4960114;28;20038;-66
2022/08/19 10:44:56;;;;;;;12.70;7.65;;;;;;;;;;4958982;28;20035;-67
2022/08/19 10:47:22;;;;;;;11.98;7.25;;;;;;;;;;4959226;28;20446;-67
2022/08/19 10:52:36;;;;;;;16.58;8.10;;;;;;;;;;4959475;28;20053;-67
2022/08/19 10:57:46;;;;;;;10.45;7.18;;;;;;;;;;4957793;28;20147;-68
2022/08/19 11:00:11;;;;;;;10.05;7.03;;;;;;;;;;4958088;28;20205;-66
2022/08/19 11:02:36;;;;;;;10.00;6.90;;;;;;;;;;4958138;28;20142;-68
2022/08/19 11:05:02;;;;;;;13.07;8.43;;;;;;;;;;4959088;28;20137;-69
2022/08/19 11:07:28;;;;;;;13.15;8.13;;;;;;;;;;4961386;28;20069;-68
2022/08/19 11:09:53;;;;;;;12.82;8.43;;;;;;;;;;4963901;28;20465;-67
2022/08/19 11:12:19;;;;;;;9.75;8.15;;;;;;;;;;4946348;28;20034;-69
2022/08/19 11:14:44;;;;;;;9.55;8.40;;;;;;;;;;4962390;28;20469;-67
2022/08/19 11:17:12;;;;;;;13.48;7.15;;;;;;;;;;4962099;28;20033;-69
2022/08/19 11:19:37;;;;;;;15.02;7.68;;;;;;;;;;4964562;28;20566;-67
2022/08/19 11:22:03;;;;;;;12.10;7.85;;;;;;;;;;4966420;28;20023;-69
2022/08/19 11:24:28;;;;;;;17.80;6.97;;;;;;;;;;4963577;28;20273;-67
2022/08/19 11:26:58;;;;;;;11.70;7.80;;;;;;;;;;4960432;28;20035;-66
2022/08/19 11:29:25;;;;;;;12.48;7.82;;;;;;;;;;4963753;28;20031;-67
2022/08/19 11:31:51;;;;;;;8.95;7.25;;;;;;;;;;4963960;28;20062;-66
2022/08/19 11:34:20;;;;;;;12.70;7.68;;;;;;;;;;4962270;28;20094;-66
2022/08/19 11:36:47;;;;;;;11.32;7.38;;;;;;;;;;4961208;28;20023;-64
2022/08/19 11:39:13;;;;;;;9.05;6.75;;;;;;;;;;4960721;28;21084;-66
2022/08/19 11:41:38;;;;;;;12.70;6.93;;;;;;;;;;4961474;28;20420;-67
2022/08/19 11:44:04;;;;;;;12.93;7.63;;;;;;;;;;4962050;28;20486;-67
2022/08/19 11:46:30;;;;;;;17.95;7.25;;;;;;;;;;4960789;28;20818;-68
2022/08/19 11:48:56;;;;;;;12.57;6.93;;;;;;;;;;4961517;28;20027;-65
2022/08/19 11:51:24;;;;;;;9.82;7.00;;;;;;;;;;4962004;28;20042;-67
2022/08/19 11:53:50;;;;;;;14.98;9.25;;;;;;;;;;4964721;28;20038;-67
2022/08/19 11:56:16;;;;;;;12.40;8.15;;;;;;;;;;4959984;28;20058;-68
2022/08/19 11:58:44;;;;;;;12.13;8.23;;;;;;;;;;4934453;28;20149;-68
2022/08/19 12:01:11;;;;;;;14.88;7.93;;;;;;;;;;4944941;28;20105;-67
2022/08/19 12:03:36;;;;;;;10.02;7.53;;;;;;;;;;4960548;28;20030;-69
2022/08/19 12:06:09;;;;;;;10.50;7.38;;;;;;;;;;4960714;28;20090;-67
2022/08/19 12:08:34;;;;;;;9.30;8.10;;;;;;;;;;4934066;28;20027;-68
2022/08/19 12:11:01;;;;;;;10.75;7.60;;;;;;;;;;4960995;28;20034;-68
2022/08/19 12:13:27;;;;;;;11.88;7.70;;;;;;;;;;4962587;28;20245;-66
2022/08/19 12:15:53;;;;;;;11.40;7.22;;;;;;;;;;4961190;28;20555;-68
2022/08/19 12:18:18;;;;;;;7.72;6.75;;;;;;;;;;4959338;28;20022;-67
2022/08/19 12:20:43;;;;;;;12.13;8.48;;;;;;;;;;4961663;28;20038;-67
2022/08/19 12:23:09;;;;;;;14.70;8.02;;;;;;;;;;4961344;28;20027;-66
2022/08/19 12:25:35;;;;;;;10.38;7.13;;;;;;;;;;4962003;28;20031;-68
2022/08/19 12:28:01;;;;;;;12.80;7.50;;;;;;;;;;4961383;28;20027;-68
2022/08/19 12:30:26;;;;;;;11.70;8.20;;;;;;;;;;4964064;28;20065;-67
2022/08/19 12:32:52;;;;;;;6.93;6.28;;;;;;;;;;4960703;28;20619;-67
2022/08/19 12:35:19;;;;;;;10.38;7.38;;;;;;;;;;4960301;28;20035;-67
2022/08/19 12:37:45;;;;;;;8.93;6.53;;;;;;;;;;4960682;28;20027;-66
2022/08/19 12:40:11;;;;;;;12.70;6.57;;;;;;;;;;4961299;28;20030;-66
2022/08/19 12:42:41;;;;;;;11.27;6.80;;;;;;;;;;4959111;28;20459;-68
2022/08/19 12:45:07;;;;;;;15.82;6.50;;;;;;;;;;4961406;28;20460;-67
2022/08/19 12:47:32;;;;;;;11.70;7.00;;;;;;;;;;4948542;28;20030;-66
2022/08/19 12:49:58;;;;;;;8.93;6.65;;;;;;;;;;4962435;28;20389;-67
2022/08/19 12:52:24;;;;;;;10.98;6.75;;;;;;;;;;4960968;28;20039;-67
2022/08/19 12:54:51;;;;;;;9.90;6.30;;;;;;;;;;4961185;28;20035;-67
2022/08/19 12:57:16;;;;;;;14.23;7.03;;;;;;;;;;4960506;28;20057;-61
2022/08/19 12:59:42;;;;;;;11.10;6.90;;;;;;;;;;4962014;28;20031;-69
2022/08/19 13:02:08;;;;;;;10.73;6.85;;;;;;;;;;4960579;28;20037;-68
2022/08/19 13:04:36;;;;;;;11.93;7.10;;;;;;;;;;4962951;28;20042;-66
2022/08/19 13:07:01;;;;;;;8.85;6.30;;;;;;;;;;4960577;28;20520;-69
2022/08/19 13:09:26;;;;;;;9.10;6.78;;;;;;;;;;4959872;28;20037;-69
2022/08/19 13:11:51;;;;;;;10.75;6.93;;;;;;;;;;4960067;28;20038;-69
2022/08/19 13:14:17;;;;;;;12.45;8.05;;;;;;;;;;4960765;28;20026;-69
2022/08/19 13:16:42;;;;;;;14.38;8.60;;;;;;;;;;4959909;28;20026;-68
2022/08/19 13:19:08;;;;;;;15.00;6.88;;;;;;;;;;4960424;28;20582;-68
2022/08/19 13:21:33;;;;;;;16.17;8.77;;;;;;;;;;4961631;28;20396;-69
2022/08/19 13:23:58;;;;;;;17.33;7.72;;;;;;;;;;4960661;28;20552;-66
2022/08/19 13:26:24;;;;;;;15.57;6.85;;;;;;;;;;4937078;28;20034;-69
2022/08/19 13:34:25;;;;;;;16.48;6.68;;;;;;;;;;4962529;28;20053;-69
2022/08/19 13:36:51;;;;;;;16.30;6.57;;;;;;;;;;4944267;28;21113;-68
2022/08/19 13:39:17;;;;;;;13.77;7.07;;;;;;;;;;4962724;28;20027;-69
2022/08/19 13:41:44;;;;;;;8.48;5.57;;;;;;;;;;4962337;28;20042;-69
2022/08/19 13:44:09;;;;;;;10.40;6.13;;;;;;;;;;4963454;28;20145;-69
2022/08/19 13:46:34;;;;;;;11.05;5.88;;;;;;;;;;4960399;28;20027;-70
2022/08/19 13:49:00;;;;;;;9.00;5.53;;;;;;;;;;4961563;28;20061;-68
2022/08/19 13:51:25;;;;;;;12.13;6.05;;;;;;;;;;4964039;28;20046;-71
2022/08/19 13:53:50;;;;;;;14.68;5.60;;;;;;;;;;4963708;28;20033;-69
2022/08/19 13:56:17;;;;;;;8.70;5.50;;;;;;;;;;4946500;28;20635;-69
2022/08/19 13:58:42;;;;;;;11.55;5.05;;;;;;;;;;4960873;28;20175;-69
2022/08/19 14:01:08;;;;;;;11.00;5.75;;;;;;;;;;4963658;28;20034;-69
2022/08/19 14:03:33;;;;;;;7.65;5.55;;;;;;;;;;4960435;28;20153;-69
2022/08/19 14:05:59;;;;;;;20.15;6.65;;;;;;;;;;4962819;28;20039;-70
2022/08/19 14:08:24;;;;;;;11.10;5.70;;;;;;;;;;4959690;28;20771;-69
2022/08/19 14:10:49;;;;;;;6.88;5.18;;;;;;;;;;4962462;28;20235;-68
2022/08/19 14:13:17;;;;;;;6.07;5.45;;;;;;;;;;4959775;28;20436;-68
2022/08/19 14:15:42;;;;;;;8.32;5.50;;;;;;;;;;4962595;28;20035;-69
2022/08/19 14:18:07;;;;;;;7.65;4.55;;;;;;;;;;4960951;28;20774;-68
2022/08/19 14:20:36;;;;;;;7.43;4.47;;;;;;;;;;4960602;28;20031;-67
2022/08/19 14:23:02;;;;;;;10.95;5.53;;;;;;;;;;4962607;28;20033;-67
2022/08/19 14:25:29;;;;;;;8.55;5.10;;;;;;;;;;4960533;28;20044;-70
2022/08/19 14:27:55;;;;;;;7.53;4.47;;;;;;;;;;4961908;28;20027;-70
2022/08/19 14:30:22;;;;;;;10.85;5.50;;;;;;;;;;4960122;28;20457;-70
2022/08/19 14:32:47;;;;;;;8.18;5.00;;;;;;;;;;4962284;28;20125;-70
2022/08/19 14:35:14;;;;;;;11.27;6.13;;;;;;;;;;4960784;28;20556;-70
2022/08/19 14:37:40;;;;;;;9.70;5.47;;;;;;;;;;4961489;28;20077;-69
2022/08/19 14:40:07;;;;;;;8.40;5.00;;;;;;;;;;4965808;28;20033;-70
2022/08/19 14:42:33;;;;;;;9.23;5.55;;;;;;;;;;4965196;28;20058;-68
2022/08/19 14:44:59;;;;;;;9.55;5.50;;;;;;;;;;4964726;28;20513;-69
2022/08/19 14:47:25;;;;;;;11.18;5.07;;;;;;;;;;4967982;28;20023;-66
2022/08/19 14:49:50;;;;;;;9.23;5.07;;;;;;;;;;4964539;28;20033;-71
2022/08/19 14:52:15;;;;;;;8.88;5.07;;;;;;;;;;4957323;28;20497;-69
2022/08/19 14:54:41;;;;;;;8.50;4.85;;;;;;;;;;4965379;28;20114;-71
2022/08/19 14:57:06;;;;;;;9.45;4.80;;;;;;;;;;4964619;28;20121;-71